Time;durP1;ratioP1;P1;durP2;ratioP2;P2;SDS_P1;SDS_P2;PMS_P1;PMS_P2;Temp;Humidity;BMP_temperature;BMP_pressure;BME280_temperature;BME280_humidity;BME280_pressure;Samples;Min_cycle;Max_cycle;Signal;HPM_P1;HPM_P2
2024/01/24 00:00:45;;;;;;;0.40;0.40;;;2.30;99.90;;;;;;4981535;28;20237;-80
2024/01/24 00:03:12;;;;;;;4.38;1.83;;;2.20;99.90;;;;;;4984023;28;20200;-80
2024/01/24 00:05:39;;;;;;;1.25;1.25;;;2.20;99.90;;;;;;4962653;28;20203;-80
2024/01/24 00:08:06;;;;;;;0.70;0.70;;;2.30;99.90;;;;;;4976982;28;20230;-81
2024/01/24 00:10:34;;;;;;;0.90;0.90;;;2.30;99.90;;;;;;4971778;28;20203;-82
2024/01/24 00:13:02;;;;;;;0.50;0.50;;;2.30;99.90;;;;;;4965312;28;20207;-80
2024/01/24 00:15:28;;;;;;;2.35;1.85;;;2.50;99.90;;;;;;4979487;28;20203;-82
2024/01/24 00:17:55;;;;;;;3.80;1.58;;;2.40;99.90;;;;;;4963545;28;20231;-80
2024/01/24 00:20:22;;;;;;;14.35;2.65;;;2.40;99.90;;;;;;4986810;28;20420;-80
2024/01/24 00:22:49;;;;;;;1.20;1.20;;;2.50;99.90;;;;;;4962040;28;20323;-80
2024/01/24 00:25:16;;;;;;;2.20;2.10;;;2.50;99.90;;;;;;4987096;28;20270;-80
2024/01/24 00:27:43;;;;;;;1.38;1.30;;;2.50;99.90;;;;;;4978575;28;20207;-81
2024/01/24 00:30:10;;;;;;;2.30;2.20;;;2.40;99.90;;;;;;4983838;28;20274;-79
2024/01/24 00:32:38;;;;;;;0.80;0.80;;;2.60;99.90;;;;;;4983241;28;20414;-79
2024/01/24 00:35:05;;;;;;;1.88;1.77;;;2.70;99.90;;;;;;4976823;28;20199;-81
2024/01/24 00:37:32;;;;;;;0.40;0.40;;;2.60;99.90;;;;;;4974201;28;20213;-80
2024/01/24 00:39:59;;;;;;;0.93;0.93;;;2.80;99.90;;;;;;4988259;28;20216;-80
2024/01/24 00:42:26;;;;;;;0.75;0.75;;;2.80;99.90;;;;;;4967480;28;20242;-81
2024/01/24 00:44:54;;;;;;;0.43;0.43;;;2.80;99.90;;;;;;4984151;28;20210;-81
2024/01/24 00:47:21;;;;;;;1.30;1.27;;;2.80;99.90;;;;;;4969533;28;20208;-81
2024/01/24 00:49:48;;;;;;;0.50;0.50;;;2.70;99.90;;;;;;4982595;28;20301;-80
2024/01/24 00:52:15;;;;;;;0.70;0.70;;;2.80;99.90;;;;;;4977953;28;20290;-80
2024/01/24 00:54:42;;;;;;;0.40;0.40;;;2.90;99.90;;;;;;4977822;28;20291;-82
2024/01/24 00:57:09;;;;;;;0.50;0.50;;;2.80;99.90;;;;;;4975862;28;20208;-79
2024/01/24 00:59:36;;;;;;;1.40;1.40;;;2.80;99.90;;;;;;4965017;28;20203;-80
2024/01/24 01:02:03;;;;;;;12.90;1.80;;;2.80;99.90;;;;;;4953336;28;20230;-80
2024/01/24 01:04:30;;;;;;;2.03;1.92;;;2.80;99.90;;;;;;4975532;28;20210;-80
2024/01/24 01:06:57;;;;;;;0.65;0.65;;;2.70;99.90;;;;;;4976192;28;20230;-81
2024/01/24 01:09:24;;;;;;;1.50;1.33;;;2.60;99.90;;;;;;4954956;28;20227;-79
2024/01/24 01:11:51;;;;;;;1.38;1.05;;;2.60;99.90;;;;;;4977733;28;20211;-79
2024/01/24 01:14:17;;;;;;;0.40;0.40;;;2.70;99.90;;;;;;4972448;28;20208;-80
2024/01/24 01:16:44;;;;;;;0.57;0.57;;;2.70;99.90;;;;;;4974577;28;20451;-81
2024/01/24 01:19:12;;;;;;;0.40;0.40;;;2.80;99.90;;;;;;4973875;28;20219;-79
2024/01/24 01:21:40;;;;;;;2.60;2.50;;;2.60;99.90;;;;;;4957612;28;20264;-82
2024/01/24 01:24:09;;;;;;;0.50;0.50;;;2.80;99.90;;;;;;4983008;28;20214;-80
2024/01/24 01:26:36;;;;;;;1.13;1.13;;;2.90;99.90;;;;;;4974161;28;20428;-80
2024/01/24 01:29:03;;;;;;;0.45;0.45;;;2.90;99.90;;;;;;4982031;28;20559;-78
2024/01/24 01:31:30;;;;;;;0.70;0.70;;;2.90;99.90;;;;;;4973602;28;20270;-80
2024/01/24 01:33:57;;;;;;;2.65;2.45;;;2.90;99.90;;;;;;4973795;28;20203;-79
2024/01/24 01:36:24;;;;;;;1.10;1.10;;;3.00;99.90;;;;;;4963198;28;20222;-80
2024/01/24 01:38:51;;;;;;;1.15;1.15;;;2.80;99.90;;;;;;4984068;28;20265;-79
2024/01/24 01:41:18;;;;;;;0.50;0.50;;;2.70;99.90;;;;;;4956884;28;20204;-80
2024/01/24 01:43:45;;;;;;;0.50;0.50;;;2.90;99.90;;;;;;4983225;28;20203;-80
2024/01/24 01:46:21;;;;;;;1.17;1.17;;;2.80;99.90;;;;;;4977453;28;20237;-81
2024/01/24 01:48:50;;;;;;;1.10;0.90;;;2.90;99.90;;;;;;4992157;28;20481;-79
2024/01/24 01:51:18;;;;;;;0.80;0.80;;;3.10;99.90;;;;;;4977886;28;20210;-79
2024/01/24 01:53:47;;;;;;;0.50;0.50;;;3.20;99.90;;;;;;4964816;28;20271;-82
2024/01/24 01:56:18;;;;;;;0.40;0.40;;;3.40;99.90;;;;;;4974850;28;20495;-80
2024/01/24 01:58:46;;;;;;;0.60;0.60;;;3.30;99.90;;;;;;4964086;28;20274;-79
2024/01/24 02:01:14;;;;;;;0.40;0.40;;;3.40;99.90;;;;;;4973347;28;20254;-81
2024/01/24 02:03:42;;;;;;;15.15;1.88;;;3.30;99.90;;;;;;4968923;28;20471;-79
2024/01/24 02:06:10;;;;;;;0.50;0.50;;;3.40;99.90;;;;;;4973118;28;20255;-80
2024/01/24 02:08:39;;;;;;;6.82;0.90;;;3.40;99.90;;;;;;4956197;28;20204;-79
2024/01/24 02:11:06;;;;;;;0.60;0.60;;;3.50;99.90;;;;;;4984291;28;20298;-81
2024/01/24 02:13:33;;;;;;;0.60;0.60;;;3.50;99.90;;;;;;4972625;28;20214;-79
2024/01/24 02:16:03;;;;;;;0.80;0.80;;;3.60;99.90;;;;;;4968351;28;20277;-78
2024/01/24 02:18:30;;;;;;;0.50;0.50;;;3.50;99.90;;;;;;4949886;28;20230;-81
2024/01/24 02:20:57;;;;;;;1.40;1.30;;;3.50;99.90;;;;;;4973528;28;20495;-80
2024/01/24 02:23:26;;;;;;;0.50;0.50;;;3.50;99.90;;;;;;4979793;28;20387;-82
2024/01/24 02:25:53;;;;;;;2.38;2.28;;;3.40;99.90;;;;;;4976412;28;20343;-79
2024/01/24 02:28:21;;;;;;;0.40;0.40;;;3.30;99.90;;;;;;4978306;28;20241;-79
2024/01/24 02:30:47;;;;;;;0.60;0.60;;;3.40;99.90;;;;;;4976435;28;20235;-81
2024/01/24 02:33:15;;;;;;;0.50;0.50;;;3.40;99.90;;;;;;4957060;28;20199;-81
2024/01/24 02:35:42;;;;;;;11.02;2.55;;;3.50;99.90;;;;;;4967414;28;20203;-82
2024/01/24 02:38:09;;;;;;;1.05;0.95;;;3.50;99.90;;;;;;4974274;28;20204;-79
2024/01/24 02:40:36;;;;;;;1.42;1.33;;;3.60;99.90;;;;;;4970383;28;20238;-78
2024/01/24 02:43:03;;;;;;;0.73;0.73;;;3.70;99.90;;;;;;4972696;28;20395;-78
2024/01/24 02:45:30;;;;;;;0.50;0.50;;;3.70;99.90;;;;;;4955019;28;20215;-79
2024/01/24 02:47:57;;;;;;;2.00;1.90;;;3.70;99.90;;;;;;4973106;28;20206;-82
2024/01/24 02:50:24;;;;;;;1.52;1.52;;;3.70;99.90;;;;;;4971104;28;20451;-79
2024/01/24 02:52:51;;;;;;;0.47;0.47;;;3.70;99.90;;;;;;4951647;28;20234;-82
2024/01/24 02:55:18;;;;;;;0.70;0.70;;;3.60;99.90;;;;;;4973041;28;20203;-78
2024/01/24 02:57:45;;;;;;;0.52;0.52;;;3.70;99.90;;;;;;4966181;28;20428;-78
2024/01/24 03:00:13;;;;;;;0.60;0.60;;;3.70;99.90;;;;;;4970085;28;20218;-80
2024/01/24 03:02:40;;;;;;;1.27;1.27;;;3.70;99.90;;;;;;4972739;28;20203;-81
2024/01/24 03:05:08;;;;;;;1.00;1.00;;;3.80;99.90;;;;;;4970651;28;20266;-79
2024/01/24 03:07:36;;;;;;;0.50;0.50;;;3.90;99.90;;;;;;4972552;28;20500;-79
2024/01/24 03:10:04;;;;;;;1.00;0.93;;;3.90;99.90;;;;;;4975620;28;20411;-79
2024/01/24 03:12:31;;;;;;;0.65;0.65;;;4.00;99.90;;;;;;4964721;28;20370;-81
2024/01/24 03:14:58;;;;;;;0.90;0.90;;;4.00;99.90;;;;;;4985834;28;20262;-79
2024/01/24 03:17:25;;;;;;;0.47;0.47;;;4.10;99.90;;;;;;4969141;28;20222;-80
2024/01/24 03:19:52;;;;;;;0.50;0.50;;;4.10;99.90;;;;;;4973778;28;20211;-81
2024/01/24 03:22:20;;;;;;;0.70;0.70;;;4.10;99.90;;;;;;4968659;28;20533;-80
2024/01/24 03:24:47;;;;;;;0.40;0.40;;;4.10;99.90;;;;;;4979728;28;20230;-82
2024/01/24 03:27:14;;;;;;;0.50;0.50;;;4.20;99.90;;;;;;4961236;28;20245;-80
2024/01/24 03:29:42;;;;;;;0.95;0.95;;;4.20;99.90;;;;;;4962775;28;20552;-79
2024/01/24 03:32:09;;;;;;;0.40;0.40;;;4.30;99.90;;;;;;4972371;28;20198;-81
2024/01/24 03:34:36;;;;;;;0.60;0.60;;;4.40;99.90;;;;;;4951996;28;20452;-78
2024/01/24 03:37:04;;;;;;;2.60;2.05;;;4.60;99.90;;;;;;4973863;28;20399;-78
2024/01/24 03:39:31;;;;;;;1.15;1.15;;;4.50;99.90;;;;;;4987018;28;20199;-83
2024/01/24 03:41:58;;;;;;;0.50;0.50;;;4.60;99.90;;;;;;4974792;28;20203;-84
2024/01/24 03:44:25;;;;;;;0.60;0.60;;;4.60;99.90;;;;;;4984790;28;20224;-83
2024/01/24 03:46:52;;;;;;;0.50;0.50;;;4.80;99.90;;;;;;4997819;28;20214;-82
2024/01/24 03:49:21;;;;;;;0.40;0.40;;;4.80;99.90;;;;;;4969340;28;20519;-80
2024/01/24 03:51:48;;;;;;;0.80;0.80;;;4.70;99.90;;;;;;4989680;28;20199;-81
2024/01/24 03:54:15;;;;;;;1.25;1.25;;;4.80;99.90;;;;;;4971501;28;20495;-78
2024/01/24 03:56:43;;;;;;;0.40;0.40;;;4.70;99.90;;;;;;4981191;28;20206;-78
2024/01/24 03:59:09;;;;;;;0.52;0.52;;;4.60;99.90;;;;;;4977129;28;20206;-79
2024/01/24 04:01:37;;;;;;;0.40;0.40;;;4.60;99.90;;;;;;4970038;28;20230;-80
2024/01/24 04:04:04;;;;;;;0.50;0.50;;;4.80;99.90;;;;;;4957332;28;20262;-81
2024/01/24 04:06:31;;;;;;;0.45;0.45;;;4.70;99.90;;;;;;4978462;28;20422;-79
2024/01/24 04:08:58;;;;;;;0.40;0.40;;;4.70;99.90;;;;;;4986611;28;20195;-79
2024/01/24 04:11:26;;;;;;;17.20;1.25;;;4.80;99.90;;;;;;4979406;28;20208;-79
2024/01/24 04:13:53;;;;;;;0.60;0.60;;;5.10;99.90;;;;;;4962695;28;20207;-81
2024/01/24 04:16:22;;;;;;;0.40;0.40;;;5.10;99.90;;;;;;4982578;28;20398;-79
2024/01/24 04:18:52;;;;;;;0.93;0.93;;;5.20;99.90;;;;;;4979765;28;20232;-79
2024/01/24 04:21:19;;;;;;;0.80;0.80;;;5.20;99.90;;;;;;4975415;28;20200;-80
2024/01/24 04:23:46;;;;;;;0.40;0.40;;;5.30;99.90;;;;;;4983584;28;20222;-78
2024/01/24 04:26:14;;;;;;;0.40;0.40;;;5.40;99.90;;;;;;4977126;28;20199;-79
2024/01/24 04:28:41;;;;;;;0.40;0.40;;;5.20;99.90;;;;;;4984475;28;20415;-79
2024/01/24 04:31:08;;;;;;;0.40;0.40;;;5.20;99.90;;;;;;4964608;28;20230;-78
2024/01/24 04:33:35;;;;;;;0.40;0.40;;;5.10;99.90;;;;;;4980317;28;20217;-81
2024/01/24 04:36:03;;;;;;;0.40;0.40;;;5.20;99.90;;;;;;4973827;28;20211;-79
2024/01/24 04:38:29;;;;;;;0.47;0.47;;;5.10;99.90;;;;;;4957395;29;20217;-79
2024/01/24 04:40:56;;;;;;;0.50;0.50;;;5.10;99.90;;;;;;4970684;28;20362;-81
2024/01/24 04:43:23;;;;;;;0.40;0.40;;;5.10;99.90;;;;;;4983236;28;20226;-79
2024/01/24 04:45:50;;;;;;;0.60;0.60;;;5.10;99.90;;;;;;4980894;28;20274;-79
2024/01/24 04:48:17;;;;;;;0.40;0.40;;;5.10;99.90;;;;;;4982119;28;20287;-79
2024/01/24 04:50:45;;;;;;;2.10;2.00;;;4.90;99.90;;;;;;4962007;28;20223;-79
2024/01/24 04:53:12;;;;;;;1.13;1.13;;;5.00;99.90;;;;;;4976514;28;20199;-78
2024/01/24 04:55:39;;;;;;;0.50;0.50;;;5.10;99.90;;;;;;4970961;28;20201;-79
2024/01/24 04:58:06;;;;;;;0.40;0.40;;;5.10;99.90;;;;;;4985427;28;20201;-82
2024/01/24 05:00:33;;;;;;;21.63;1.50;;;5.00;99.90;;;;;;4974872;28;20234;-78
2024/01/24 05:03:00;;;;;;;0.40;0.40;;;4.90;99.90;;;;;;4977658;28;20314;-78
2024/01/24 05:05:27;;;;;;;0.50;0.50;;;4.80;99.90;;;;;;4960585;28;20199;-79
2024/01/24 05:07:54;;;;;;;1.02;0.95;;;4.80;99.90;;;;;;4976708;28;20199;-81
2024/01/24 05:10:21;;;;;;;0.50;0.50;;;4.80;99.90;;;;;;4972802;28;20269;-80
2024/01/24 05:12:48;;;;;;;0.77;0.77;;;4.80;99.90;;;;;;4976054;28;20216;-78
2024/01/24 05:15:15;;;;;;;0.60;0.60;;;4.70;99.90;;;;;;4971865;28;20238;-78
2024/01/24 05:17:42;;;;;;;0.50;0.50;;;4.80;99.90;;;;;;4974011;28;20199;-77
2024/01/24 05:20:10;;;;;;;0.50;0.50;;;4.80;99.90;;;;;;4974129;28;20219;-78
2024/01/24 05:22:38;;;;;;;2.00;1.90;;;4.80;99.90;;;;;;4976684;28;20216;-78
2024/01/24 05:25:05;;;;;;;0.88;0.88;;;4.70;99.90;;;;;;4981829;28;20212;-80
2024/01/24 05:27:32;;;;;;;0.50;0.50;;;4.70;99.90;;;;;;4977948;28;20206;-76
2024/01/24 05:29:59;;;;;;;1.85;1.75;;;4.70;99.90;;;;;;4983640;28;20487;-78
2024/01/24 05:32:41;;;;;;;0.93;0.93;;;4.70;99.90;;;;;;4978802;28;20207;-77
2024/01/24 05:35:08;;;;;;;0.43;0.43;;;4.70;99.90;;;;;;4976996;28;20229;-77
2024/01/24 05:37:35;;;;;;;0.50;0.50;;;4.70;99.90;;;;;;4980643;28;20204;-76
2024/01/24 05:40:03;;;;;;;0.50;0.50;;;4.70;99.90;;;;;;4965713;28;20548;-77
2024/01/24 05:42:32;;;;;;;0.82;0.82;;;4.70;99.90;;;;;;4980450;28;20208;-78
2024/01/24 05:44:59;;;;;;;0.77;0.77;;;4.80;99.90;;;;;;4948876;28;20199;-78
2024/01/24 05:47:26;;;;;;;0.50;0.50;;;4.70;99.90;;;;;;4971622;28;20199;-76
2024/01/24 05:49:53;;;;;;;2.53;1.67;;;4.70;99.90;;;;;;4967887;28;20242;-77
2024/01/24 05:52:20;;;;;;;0.50;0.50;;;4.70;99.90;;;;;;4954231;28;20240;-77
2024/01/24 05:54:47;;;;;;;0.50;0.50;;;4.70;99.90;;;;;;4972927;28;20204;-76
2024/01/24 05:57:14;;;;;;;0.50;0.50;;;4.60;99.90;;;;;;4972800;28;20201;-77
2024/01/24 05:59:41;;;;;;;0.50;0.50;;;4.70;99.90;;;;;;4969668;28;20207;-77
2024/01/24 06:02:08;;;;;;;0.55;0.55;;;4.60;99.90;;;;;;4979948;28;20200;-77
2024/01/24 06:04:35;;;;;;;0.50;0.50;;;4.70;99.90;;;;;;4971493;28;20220;-77
2024/01/24 06:07:02;;;;;;;0.40;0.40;;;4.70;99.90;;;;;;4959499;28;20273;-78
2024/01/24 06:09:30;;;;;;;0.40;0.40;;;4.70;99.90;;;;;;4983310;28;20294;-79
2024/01/24 06:11:57;;;;;;;0.40;0.40;;;4.70;99.90;;;;;;4974112;28;20213;-78
2024/01/24 06:14:24;;;;;;;0.50;0.50;;;4.70;99.90;;;;;;4966734;28;20204;-78
2024/01/24 06:16:51;;;;;;;0.75;0.75;;;4.80;99.90;;;;;;4977367;28;20237;-78
2024/01/24 06:19:18;;;;;;;0.40;0.40;;;4.80;99.90;;;;;;4968398;28;20227;-78
2024/01/24 06:21:45;;;;;;;0.45;0.45;;;4.70;99.90;;;;;;4982005;28;20198;-78
2024/01/24 06:24:12;;;;;;;0.40;0.40;;;4.80;99.90;;;;;;4978914;28;20201;-77
2024/01/24 06:26:39;;;;;;;0.52;0.52;;;4.80;99.90;;;;;;4982377;28;20428;-80
2024/01/24 06:29:07;;;;;;;0.57;0.57;;;4.80;99.90;;;;;;4969014;28;20494;-78
2024/01/24 06:31:34;;;;;;;0.85;0.85;;;4.80;99.90;;;;;;4955641;28;20231;-77
2024/01/24 06:34:01;;;;;;;0.40;0.40;;;4.90;99.90;;;;;;4972875;28;20424;-78
2024/01/24 06:36:28;;;;;;;0.63;0.63;;;4.90;99.90;;;;;;4974206;28;20209;-80
2024/01/24 06:38:56;;;;;;;0.73;0.73;;;5.00;99.90;;;;;;4970638;28;20224;-78
2024/01/24 06:41:23;;;;;;;0.50;0.50;;;5.00;99.90;;;;;;4973807;28;20578;-79
2024/01/24 06:43:49;;;;;;;0.50;0.50;;;5.00;99.90;;;;;;4966595;28;20235;-80
2024/01/24 06:46:17;;;;;;;0.50;0.50;;;5.10;99.90;;;;;;4973430;28;20532;-78
2024/01/24 06:48:44;;;;;;;0.50;0.50;;;5.20;99.90;;;;;;4972374;28;20199;-78
2024/01/24 06:51:13;;;;;;;0.50;0.50;;;5.20;99.90;;;;;;4951150;29;20224;-78
2024/01/24 06:53:40;;;;;;;0.50;0.50;;;5.30;99.90;;;;;;4968250;28;20200;-79
2024/01/24 06:56:08;;;;;;;0.50;0.50;;;5.40;99.90;;;;;;4979803;28;20261;-78
2024/01/24 06:58:37;;;;;;;0.50;0.50;;;5.50;99.90;;;;;;4968178;28;20199;-79
2024/01/24 07:01:04;;;;;;;0.93;0.93;;;5.50;99.90;;;;;;4969171;28;20272;-79
2024/01/24 07:03:34;;;;;;;0.50;0.50;;;5.60;99.90;;;;;;4956003;28;20227;-79
2024/01/24 07:06:04;;;;;;;0.55;0.55;;;5.70;99.90;;;;;;4967358;28;20200;-80
2024/01/24 07:08:33;;;;;;;0.68;0.68;;;5.70;99.90;;;;;;4982460;28;20264;-78
2024/01/24 07:11:01;;;;;;;1.88;0.88;;;5.70;99.90;;;;;;4977696;28;20571;-79
2024/01/24 07:13:28;;;;;;;0.50;0.50;;;5.80;99.90;;;;;;4970009;28;20252;-78
2024/01/24 07:15:55;;;;;;;0.90;0.90;;;5.80;99.90;;;;;;4977934;28;20515;-79
2024/01/24 07:18:22;;;;;;;0.93;0.93;;;5.90;99.90;;;;;;4967266;28;20223;-79
2024/01/24 07:20:50;;;;;;;0.70;0.70;;;5.90;99.90;;;;;;4978983;28;20438;-78
2024/01/24 07:23:17;;;;;;;0.40;0.40;;;5.90;99.90;;;;;;4965247;28;20231;-78
2024/01/24 07:25:44;;;;;;;0.50;0.50;;;5.90;99.90;;;;;;4967846;28;20201;-79
2024/01/24 07:28:11;;;;;;;0.50;0.50;;;6.00;99.90;;;;;;4984213;28;20207;-80
2024/01/24 07:30:37;;;;;;;0.50;0.50;;;6.10;99.90;;;;;;4971530;28;20357;-78
2024/01/24 07:33:05;;;;;;;0.50;0.50;;;6.10;99.90;;;;;;4979062;28;20207;-80
2024/01/24 07:35:32;;;;;;;0.50;0.50;;;6.00;99.90;;;;;;4968723;28;20210;-79
2024/01/24 07:37:59;;;;;;;0.60;0.60;;;6.00;99.90;;;;;;4974444;28;20275;-78
2024/01/24 07:40:26;;;;;;;0.43;0.43;;;6.00;99.90;;;;;;4974657;28;20315;-84
2024/01/24 07:42:53;;;;;;;0.77;0.77;;;6.10;99.90;;;;;;4976161;28;20386;-79
2024/01/24 07:45:23;;;;;;;0.40;0.40;;;6.20;99.90;;;;;;4981725;28;20202;-80
2024/01/24 07:47:51;;;;;;;0.70;0.70;;;6.20;99.90;;;;;;4970040;28;20249;-79
2024/01/24 07:50:19;;;;;;;0.82;0.82;;;6.20;99.90;;;;;;4979819;28;20288;-79
2024/01/24 07:52:46;;;;;;;0.50;0.50;;;6.30;99.90;;;;;;4962790;28;20207;-78
2024/01/24 07:55:15;;;;;;;0.40;0.40;;;6.30;99.90;;;;;;4966495;28;20203;-78
2024/01/24 07:57:50;;;;;;;0.40;0.40;;;6.40;99.90;;;;;;4984462;28;20197;-82
2024/01/24 08:00:18;;;;;;;0.50;0.50;;;6.60;99.90;;;;;;4995380;28;20197;-79
2024/01/24 08:02:45;;;;;;;0.40;0.40;;;6.60;99.90;;;;;;4991336;28;20244;-80
2024/01/24 08:05:16;;;;;;;0.40;0.40;;;6.70;99.90;;;;;;4987225;28;20258;-79
2024/01/24 08:07:45;;;;;;;0.43;0.43;;;6.80;99.90;;;;;;4987611;28;20198;-79
2024/01/24 08:10:13;;;;;;;1.17;1.08;;;6.70;99.90;;;;;;4963749;28;20449;-80
2024/01/24 08:12:42;;;;;;;0.60;0.60;;;6.70;99.90;;;;;;4976638;28;20254;-83
2024/01/24 08:15:09;;;;;;;2.90;1.77;;;6.80;99.90;;;;;;4980338;28;20199;-82
2024/01/24 08:17:36;;;;;;;0.40;0.40;;;6.80;99.90;;;;;;4978922;28;20206;-81
2024/01/24 08:20:04;;;;;;;1.33;1.33;;;6.80;99.90;;;;;;4991008;28;20202;-81
2024/01/24 08:22:32;;;;;;;0.47;0.47;;;6.90;99.90;;;;;;4986524;28;20202;-80
2024/01/24 08:24:59;;;;;;;0.40;0.40;;;7.00;99.90;;;;;;4969353;28;20526;-80
2024/01/24 08:27:26;;;;;;;0.77;0.77;;;7.10;99.90;;;;;;4975723;28;20214;-80
2024/01/24 08:29:53;;;;;;;0.50;0.50;;;7.10;99.90;;;;;;4975578;28;20560;-82
2024/01/24 08:32:20;;;;;;;0.40;0.40;;;7.10;99.90;;;;;;4971856;28;20452;-81
2024/01/24 08:34:47;;;;;;;0.50;0.50;;;7.10;99.90;;;;;;4970632;28;20199;-81
2024/01/24 08:37:14;;;;;;;0.50;0.50;;;7.10;99.90;;;;;;4978767;28;20230;-82
2024/01/24 08:39:41;;;;;;;1.15;1.15;;;7.30;99.90;;;;;;4973917;28;20203;-79
2024/01/24 08:42:08;;;;;;;0.60;0.60;;;7.30;99.90;;;;;;4955960;28;20392;-80
2024/01/24 08:44:35;;;;;;;0.50;0.50;;;7.40;99.90;;;;;;4969415;28;20207;-80
2024/01/24 08:47:03;;;;;;;0.40;0.40;;;7.40;99.90;;;;;;4974122;28;20199;-79
2024/01/24 08:49:31;;;;;;;0.40;0.40;;;7.50;99.90;;;;;;4964400;28;20263;-80
2024/01/24 08:51:58;;;;;;;0.82;0.82;;;7.60;99.90;;;;;;4981800;28;20286;-81
2024/01/24 08:54:26;;;;;;;0.40;0.40;;;7.60;99.90;;;;;;4983649;28;20202;-83
2024/01/24 08:56:53;;;;;;;0.40;0.40;;;7.70;99.90;;;;;;4957193;28;20494;-81
2024/01/24 08:59:22;;;;;;;0.47;0.47;;;7.80;99.90;;;;;;4976126;28;20226;-79
2024/01/24 09:01:49;;;;;;;0.40;0.40;;;8.00;99.90;;;;;;4971923;28;20210;-80
2024/01/24 09:04:16;;;;;;;0.40;0.40;;;8.00;99.90;;;;;;4972640;28;20207;-80
2024/01/24 09:06:44;;;;;;;0.40;0.40;;;8.10;99.90;;;;;;4969140;28;20271;-80
2024/01/24 09:09:13;;;;;;;0.40;0.40;;;8.00;99.90;;;;;;4980041;28;20207;-82
2024/01/24 09:11:42;;;;;;;1.33;1.25;;;8.10;99.90;;;;;;4979357;28;20226;-80
2024/01/24 09:14:21;;;;;;;0.50;0.50;;;8.30;99.90;;;;;;4981407;28;20510;-78
2024/01/24 09:16:49;;;;;;;0.40;0.40;;;8.40;99.90;;;;;;4951696;28;20203;-80
2024/01/24 09:19:17;;;;;;;0.50;0.50;;;8.40;99.90;;;;;;4979380;28;20199;-80
2024/01/24 09:21:45;;;;;;;0.50;0.50;;;8.30;99.90;;;;;;4981285;28;20206;-80
2024/01/24 09:24:12;;;;;;;0.40;0.40;;;8.30;99.90;;;;;;4969193;28;20238;-79
2024/01/24 09:26:39;;;;;;;0.50;0.50;;;8.40;99.90;;;;;;4953657;28;20211;-82
2024/01/24 09:29:06;;;;;;;0.50;0.50;;;8.50;99.90;;;;;;4980809;28;20200;-81
2024/01/24 09:31:33;;;;;;;1.42;1.42;;;8.50;99.90;;;;;;4974698;28;20246;-81
2024/01/24 09:34:00;;;;;;;0.50;0.50;;;8.50;99.90;;;;;;4998679;28;20198;-77
2024/01/24 09:36:28;;;;;;;3.08;2.78;;;8.40;99.90;;;;;;4986090;28;20195;-80
2024/01/24 09:38:55;;;;;;;0.50;0.50;;;8.30;99.90;;;;;;4985587;28;20235;-80
2024/01/24 09:41:23;;;;;;;0.50;0.50;;;8.40;99.90;;;;;;4987607;28;20351;-78
2024/01/24 09:43:55;;;;;;;2.90;2.70;;;8.60;99.90;;;;;;4981511;28;20223;-79
2024/01/24 09:46:22;;;;;;;0.70;0.70;;;8.70;99.90;;;;;;4991215;28;20270;-79
2024/01/24 09:48:49;;;;;;;0.50;0.50;;;8.90;99.90;;;;;;4974155;28;20436;-79
2024/01/24 09:51:17;;;;;;;0.50;0.50;;;9.10;99.90;;;;;;4977519;28;20230;-81
2024/01/24 09:53:46;;;;;;;0.50;0.50;;;9.00;99.90;;;;;;4988276;28;20349;-79
2024/01/24 09:56:16;;;;;;;0.40;0.40;;;8.90;99.90;;;;;;4991023;28;20198;-78
2024/01/24 09:58:44;;;;;;;0.50;0.50;;;8.80;99.90;;;;;;4971648;28;20211;-79
2024/01/24 10:01:12;;;;;;;0.50;0.50;;;9.00;99.90;;;;;;4985917;28;20211;-79
2024/01/24 10:03:41;;;;;;;0.50;0.50;;;9.00;99.90;;;;;;4969698;28;20203;-79
2024/01/24 10:06:10;;;;;;;0.60;0.60;;;9.20;99.90;;;;;;4971589;28;20199;-80
2024/01/24 10:08:38;;;;;;;0.70;0.70;;;9.20;99.90;;;;;;4978564;28;20213;-80
2024/01/24 10:11:06;;;;;;;0.50;0.50;;;9.30;99.90;;;;;;4980369;28;20250;-81
2024/01/24 10:13:36;;;;;;;0.40;0.40;;;9.20;99.90;;;;;;4977074;28;20273;-84
2024/01/24 10:16:05;;;;;;;0.95;0.85;;;9.30;99.90;;;;;;4992725;28;20201;-81
2024/01/24 10:18:36;;;;;;;0.50;0.50;;;9.40;99.90;;;;;;4963390;28;20202;-80
2024/01/24 10:21:05;;;;;;;0.50;0.50;;;9.40;99.90;;;;;;4958972;28;20507;-80
2024/01/24 10:23:33;;;;;;;0.63;0.63;;;9.40;99.90;;;;;;4951506;28;20428;-80
2024/01/24 10:26:00;;;;;;;0.50;0.50;;;9.40;99.90;;;;;;4968468;28;20554;-81
2024/01/24 10:28:28;;;;;;;0.50;0.50;;;9.40;99.90;;;;;;4972048;28;20286;-80
2024/01/24 10:30:55;;;;;;;0.50;0.50;;;9.40;99.90;;;;;;4980738;28;20227;-80
2024/01/24 10:33:22;;;;;;;0.50;0.50;;;9.30;99.90;;;;;;4979741;28;20206;-79
2024/01/24 10:35:50;;;;;;;0.50;0.50;;;9.20;99.90;;;;;;4973950;28;20320;-79
2024/01/24 10:38:24;;;;;;;0.50;0.50;;;9.10;99.90;;;;;;4966938;28;20274;-80
2024/01/24 10:41:01;;;;;;;1.33;1.33;;;9.20;99.90;;;;;;4985277;28;20547;-82
2024/01/24 10:43:28;;;;;;;0.50;0.50;;;9.20;99.90;;;;;;4982532;28;20251;-81
2024/01/24 10:45:57;;;;;;;0.50;0.50;;;9.20;99.90;;;;;;4993626;28;20199;-85
2024/01/24 10:48:25;;;;;;;14.93;3.35;;;9.30;99.90;;;;;;4976349;28;20224;-81
2024/01/24 10:50:56;;;;;;;1.05;0.98;;;9.40;99.90;;;;;;4978418;28;20609;-80
2024/01/24 10:53:24;;;;;;;0.50;0.50;;;9.50;99.90;;;;;;4975926;28;20199;-80
2024/01/24 10:55:56;;;;;;;0.50;0.50;;;9.70;99.90;;;;;;4975806;28;20207;-80
2024/01/24 10:58:25;;;;;;;0.50;0.50;;;9.90;99.90;;;;;;4964585;28;20198;-81
2024/01/24 11:00:52;;;;;;;0.50;0.50;;;10.20;99.90;;;;;;4976032;28;20206;-81
2024/01/24 11:03:19;;;;;;;0.50;0.50;;;10.30;99.90;;;;;;4978674;28;20211;-81
2024/01/24 11:05:54;;;;;;;0.40;0.40;;;10.40;99.90;;;;;;4961143;28;20225;-76
2024/01/24 11:08:40;;;;;;;1.00;1.00;;;10.60;99.90;;;;;;4961138;28;20210;-80
2024/01/24 11:11:18;;;;;;;1.13;1.13;;;10.70;99.90;;;;;;4982413;28;20252;-80
2024/01/24 11:13:46;;;;;;;1.25;1.15;;;10.90;99.90;;;;;;4961356;28;20222;-81
2024/01/24 11:16:25;;;;;;;0.50;0.50;;;10.80;99.90;;;;;;4983933;28;20269;-82
2024/01/24 11:18:59;;;;;;;1.55;1.45;;;10.80;99.90;;;;;;4957844;28;20215;-79
2024/01/24 11:21:30;;;;;;;0.70;0.70;;;10.00;99.90;;;;;;4971075;28;20208;-82
2024/01/24 11:23:59;;;;;;;0.70;0.70;;;9.80;99.90;;;;;;4969737;28;20222;-79
2024/01/24 11:26:26;;;;;;;0.60;0.60;;;9.60;99.90;;;;;;4973655;28;20431;-80
2024/01/24 11:29:10;;;;;;;0.50;0.50;;;9.70;99.90;;;;;;4971765;28;20207;-79
2024/01/24 11:31:42;;;;;;;0.50;0.50;;;9.50;99.90;;;;;;4973265;28;20277;-81
2024/01/24 11:34:14;;;;;;;0.50;0.50;;;9.50;99.90;;;;;;4972257;28;20209;-80
2024/01/24 11:36:52;;;;;;;0.60;0.60;;;9.50;99.90;;;;;;4980484;28;20360;-80
2024/01/24 11:39:28;;;;;;;0.52;0.52;;;9.20;99.90;;;;;;4970992;28;20317;-79
2024/01/24 11:42:25;;;;;;;0.60;0.60;;;9.00;99.90;;;;;;4975980;28;20273;-82
2024/01/24 11:44:53;;;;;;;0.60;0.60;;;8.90;99.90;;;;;;4955030;28;20206;-77
2024/01/24 11:47:22;;;;;;;0.60;0.60;;;8.90;99.90;;;;;;4975103;28;20230;-80
2024/01/24 11:49:50;;;;;;;0.50;0.50;;;8.90;99.90;;;;;;4969310;28;20245;-81
2024/01/24 11:52:21;;;;;;;0.40;0.40;;;8.90;99.90;;;;;;4958531;28;20273;-81
2024/01/24 11:54:51;;;;;;;0.50;0.50;;;8.80;99.90;;;;;;4973935;28;20205;-78
2024/01/24 11:57:18;;;;;;;1.25;0.80;;;8.90;99.90;;;;;;4975820;28;20214;-79
2024/01/24 11:59:46;;;;;;;0.50;0.50;;;8.90;99.90;;;;;;4970226;28;20198;-80
2024/01/24 12:02:13;;;;;;;0.50;0.50;;;8.90;99.90;;;;;;4979086;28;20239;-80
2024/01/24 12:04:40;;;;;;;0.50;0.50;;;8.90;99.90;;;;;;4977037;28;20273;-84
2024/01/24 12:07:07;;;;;;;0.60;0.60;;;8.90;99.90;;;;;;4977063;28;20262;-78
2024/01/24 12:09:34;;;;;;;0.55;0.55;;;8.90;99.90;;;;;;4959245;28;20215;-79
2024/01/24 12:12:02;;;;;;;0.60;0.60;;;8.90;99.90;;;;;;4977233;28;20658;-79
2024/01/24 12:14:29;;;;;;;0.50;0.50;;;8.90;99.90;;;;;;4979910;28;20233;-79
2024/01/24 12:16:56;;;;;;;0.52;0.52;;;9.00;99.90;;;;;;4958963;28;20419;-79
2024/01/24 12:19:23;;;;;;;0.50;0.50;;;9.00;99.90;;;;;;4985173;28;20203;-82
2024/01/24 12:21:51;;;;;;;0.50;0.50;;;9.00;99.90;;;;;;4982597;28;20289;-80
2024/01/24 12:24:19;;;;;;;0.50;0.50;;;9.00;99.90;;;;;;4975961;28;20468;-81
2024/01/24 12:26:46;;;;;;;0.57;0.57;;;9.00;99.90;;;;;;4968925;28;20202;-80
2024/01/24 12:29:15;;;;;;;0.85;0.85;;;9.00;99.90;;;;;;4951784;28;20215;-78
2024/01/24 12:31:45;;;;;;;0.70;0.70;;;9.00;99.90;;;;;;4954215;28;20672;-82
2024/01/24 12:34:12;;;;;;;1.60;1.50;;;9.00;99.90;;;;;;4963688;28;20246;-77
2024/01/24 12:36:44;;;;;;;0.50;0.50;;;9.20;99.90;;;;;;4959259;28;20231;-81
2024/01/24 12:39:11;;;;;;;0.60;0.60;;;9.40;99.90;;;;;;4973420;28;20199;-78
2024/01/24 12:41:41;;;;;;;0.40;0.40;;;9.40;99.90;;;;;;4971818;28;20277;-82
2024/01/24 12:44:11;;;;;;;0.50;0.50;;;9.30;99.90;;;;;;4983680;28;20208;-77
2024/01/24 12:46:39;;;;;;;1.80;1.70;;;9.30;99.90;;;;;;4974778;28;20346;-80
2024/01/24 12:49:06;;;;;;;0.40;0.40;;;9.20;99.90;;;;;;4974022;28;20227;-80
2024/01/24 12:51:36;;;;;;;0.40;0.40;;;9.30;99.90;;;;;;4974196;28;20264;-80
2024/01/24 12:54:06;;;;;;;0.40;0.40;;;9.40;99.90;;;;;;4984894;28;20209;-78
2024/01/24 12:56:33;;;;;;;0.40;0.40;;;9.40;99.90;;;;;;4974473;28;20214;-81
2024/01/24 12:59:00;;;;;;;0.40;0.40;;;9.40;99.90;;;;;;4970530;28;20554;-80